createdAt,value
2017-09-29T00:00:46.670Z,978.14
2017-09-29T00:01:46.520Z,978.16
2017-09-29T00:02:46.710Z,978.16
2017-09-29T00:03:46.868Z,978.15
2017-09-29T00:04:46.747Z,978.14
2017-09-29T00:05:46.874Z,978.13
2017-09-29T00:06:47.265Z,978.11
2017-09-29T00:07:46.813Z,978.11
2017-09-29T00:08:46.984Z,978.16
2017-09-29T00:09:47.058Z,978.14
2017-09-29T00:10:46.946Z,978.14
2017-09-29T00:11:47.242Z,978.10
2017-09-29T00:12:47.163Z,978.12
2017-09-29T00:13:47.570Z,978.13
2017-09-29T00:14:47.262Z,978.11
2017-09-29T00:15:47.441Z,978.07
2017-09-29T00:16:47.352Z,978.03
2017-09-29T00:17:47.665Z,978.06
2017-09-29T00:18:47.499Z,978.07
2017-09-29T00:19:47.689Z,978.07
2017-09-29T00:20:48.085Z,978.07
2017-09-29T00:21:48.113Z,978.09
2017-09-29T00:22:47.781Z,978.11
2017-09-29T00:23:47.992Z,978.09
2017-09-29T00:24:47.771Z,978.09
2017-09-29T00:25:47.680Z,978.08
2017-09-29T00:26:47.845Z,978.09
2017-09-29T00:27:48.216Z,978.10
2017-09-29T00:28:48.260Z,978.09
2017-09-29T00:29:48.139Z,978.07
2017-09-29T00:30:48.051Z,978.08
2017-09-29T00:31:48.041Z,978.08
2017-09-29T00:32:48.359Z,978.11
2017-09-29T00:33:48.684Z,978.04
2017-09-29T00:34:48.136Z,978.09
2017-09-29T00:35:48.576Z,978.10
2017-09-29T00:36:48.403Z,978.11
2017-09-29T00:37:48.502Z,978.11
2017-09-29T00:38:48.917Z,978.09
2017-09-29T00:39:48.571Z,978.08
2017-09-29T00:40:48.887Z,978.08
2017-09-29T00:41:48.585Z,978.09
2017-09-29T00:42:48.685Z,978.10
2017-09-29T00:43:49.335Z,978.09
2017-09-29T00:44:48.781Z,978.09
2017-09-29T00:45:48.857Z,978.05
2017-09-29T00:46:48.822Z,978.05
2017-09-29T00:47:49.021Z,978.06
2017-09-29T00:48:48.987Z,978.05
2017-09-29T00:49:48.967Z,977.99
2017-09-29T00:50:49.727Z,978.01
2017-09-29T00:51:49.068Z,977.99
2017-09-29T00:52:49.157Z,978.00
2017-09-29T00:53:49.532Z,977.98
2017-09-29T00:54:49.527Z,977.99
2017-09-29T00:55:49.323Z,977.96
2017-09-29T00:56:49.378Z,977.98
2017-09-29T00:57:49.562Z,977.97
2017-09-29T00:58:49.583Z,977.97
2017-09-29T00:59:49.457Z,978.01
2017-09-29T01:00:49.623Z,977.98
2017-09-29T01:01:49.619Z,977.98
2017-09-29T01:02:49.565Z,977.97
2017-09-29T01:03:49.994Z,977.94
2017-09-29T01:04:49.712Z,977.92
2017-09-29T01:05:50.082Z,977.95
2017-09-29T01:06:49.728Z,977.92
2017-09-29T01:07:50.026Z,977.93
2017-09-29T01:08:50.338Z,977.92
2017-09-29T01:09:49.886Z,977.92
2017-09-29T01:10:49.933Z,977.91
2017-09-29T01:11:50.237Z,977.89
2017-09-29T01:12:50.234Z,977.94
2017-09-29T01:13:50.431Z,977.94
2017-09-29T01:14:50.239Z,977.93
2017-09-29T01:15:50.304Z,977.89
2017-09-29T01:16:50.471Z,977.89
2017-09-29T01:17:50.400Z,977.90
2017-09-29T01:18:50.763Z,977.89
2017-09-29T01:19:51.050Z,977.89
2017-09-29T01:20:50.670Z,977.89
2017-09-29T01:21:50.541Z,977.88
2017-09-29T01:22:50.732Z,977.89
2017-09-29T01:23:50.863Z,977.86
2017-09-29T01:24:50.855Z,977.87
2017-09-29T01:25:50.864Z,977.88
2017-09-29T01:26:50.715Z,977.86
2017-09-29T01:27:50.729Z,977.85
2017-09-29T01:28:50.969Z,977.88
2017-09-29T01:29:50.988Z,977.89
2017-09-29T01:30:51.611Z,977.88
2017-09-29T01:31:51.162Z,977.86
2017-09-29T01:32:51.217Z,977.87
2017-09-29T01:33:51.060Z,977.84
2017-09-29T01:34:51.485Z,977.83
2017-09-29T01:35:51.119Z,977.82
2017-09-29T01:36:51.412Z,977.83
2017-09-29T01:37:51.477Z,977.82
2017-09-29T01:38:51.632Z,977.83
2017-09-29T01:39:51.891Z,977.82
2017-09-29T01:40:51.601Z,977.84
2017-09-29T01:41:51.428Z,977.84
2017-09-29T01:42:51.792Z,977.87
2017-09-29T01:43:51.520Z,977.88
2017-09-29T01:44:51.862Z,977.84
2017-09-29T01:45:51.832Z,977.85
2017-09-29T01:46:51.783Z,977.82
2017-09-29T01:47:52.487Z,977.84
2017-09-29T01:48:52.516Z,977.84
2017-09-29T01:49:52.993Z,977.84
2017-09-29T01:50:52.067Z,977.86
2017-09-29T01:51:52.191Z,977.83
2017-09-29T01:52:52.082Z,977.81
2017-09-29T01:53:52.142Z,977.83
2017-09-29T01:54:52.102Z,977.83
2017-09-29T01:55:52.551Z,977.87
2017-09-29T01:56:52.162Z,977.83
2017-09-29T01:57:52.248Z,977.86
2017-09-29T01:58:52.560Z,977.81
2017-09-29T01:59:52.888Z,977.82
2017-09-29T02:00:52.827Z,977.78
2017-09-29T02:01:52.393Z,977.81
2017-09-29T02:02:52.638Z,977.76
2017-09-29T02:03:52.904Z,977.79
2017-09-29T02:04:52.663Z,977.79
2017-09-29T02:05:52.715Z,977.77
2017-09-29T02:06:52.736Z,977.79
2017-09-29T02:07:52.845Z,977.79
2017-09-29T02:08:52.764Z,977.80
2017-09-29T02:09:52.832Z,977.78
2017-09-29T02:10:53.354Z,977.77
2017-09-29T02:11:53.030Z,977.75
2017-09-29T02:12:53.087Z,977.71
2017-09-29T02:13:53.218Z,977.73
2017-09-29T02:14:53.439Z,977.72
2017-09-29T02:15:53.595Z,977.71
2017-09-29T02:16:53.265Z,977.73
2017-09-29T02:17:53.959Z,977.74
2017-09-29T02:18:53.912Z,977.70
2017-09-29T02:19:54.161Z,977.75
2017-09-29T02:20:54.088Z,977.73
2017-09-29T02:21:54.026Z,977.72
2017-09-29T02:22:54.026Z,977.73
2017-09-29T02:23:53.904Z,977.68
2017-09-29T02:24:53.839Z,977.67
2017-09-29T02:25:54.030Z,977.59
2017-09-29T02:26:53.894Z,977.63
2017-09-29T02:27:53.935Z,977.60
2017-09-29T02:28:53.688Z,977.54
2017-09-29T02:29:53.896Z,977.55
2017-09-29T02:30:54.170Z,977.56
2017-09-29T02:31:54.186Z,977.52
2017-09-29T02:32:54.159Z,977.50
2017-09-29T02:33:54.061Z,977.53
2017-09-29T02:34:54.243Z,977.54
2017-09-29T02:35:54.465Z,977.53
2017-09-29T02:36:54.345Z,977.54
2017-09-29T02:37:54.224Z,977.58
2017-09-29T02:38:54.221Z,977.57
2017-09-29T02:39:54.615Z,977.56
2017-09-29T02:40:54.652Z,977.59
2017-09-29T02:41:54.403Z,977.62
2017-09-29T02:42:54.874Z,977.55
2017-09-29T02:43:54.486Z,977.58
2017-09-29T02:44:54.823Z,977.54
2017-09-29T02:45:55.084Z,977.57
2017-09-29T02:46:54.846Z,977.57
2017-09-29T02:47:54.672Z,977.54
2017-09-29T02:48:55.443Z,977.54
2017-09-29T02:49:54.933Z,977.56
2017-09-29T02:50:55.123Z,977.59
2017-09-29T02:51:54.817Z,977.61
2017-09-29T02:52:55.417Z,977.62
2017-09-29T02:53:55.368Z,977.61
2017-09-29T02:54:55.299Z,977.58
2017-09-29T02:55:55.059Z,977.62
2017-09-29T02:56:55.296Z,977.62
2017-09-29T02:57:55.421Z,977.64
2017-09-29T02:58:55.252Z,977.61
2017-09-29T02:59:55.275Z,977.62
2017-09-29T03:00:55.493Z,977.63
2017-09-29T03:01:55.307Z,977.61
2017-09-29T03:02:55.518Z,977.65
2017-09-29T03:03:55.630Z,977.62
2017-09-29T03:04:55.580Z,977.63
2017-09-29T03:05:55.754Z,977.57
2017-09-29T03:06:56.335Z,977.56
2017-09-29T03:07:55.961Z,977.56
2017-09-29T03:08:55.846Z,977.55
2017-09-29T03:09:55.704Z,977.52
2017-09-29T03:10:56.494Z,977.48
2017-09-29T03:11:56.005Z,977.48
2017-09-29T03:12:56.329Z,977.42
2017-09-29T03:13:55.920Z,977.39
2017-09-29T03:14:56.131Z,977.40
2017-09-29T03:15:56.384Z,977.41
2017-09-29T03:16:56.436Z,977.36
2017-09-29T03:17:56.614Z,977.39
2017-09-29T03:18:56.514Z,977.41
2017-09-29T03:19:56.266Z,977.44
2017-09-29T03:20:56.536Z,977.43
2017-09-29T03:21:56.694Z,977.47
2017-09-29T03:22:56.349Z,977.45
2017-09-29T03:23:57.174Z,977.48
2017-09-29T03:24:56.604Z,977.50
2017-09-29T03:25:56.579Z,977.49
2017-09-29T03:26:56.752Z,977.51
2017-09-29T03:27:56.759Z,977.50
2017-09-29T03:28:56.702Z,977.50
2017-09-29T03:29:56.725Z,977.49
2017-09-29T03:30:57.318Z,977.51
2017-09-29T03:31:57.145Z,977.51
2017-09-29T03:32:57.125Z,977.49
2017-09-29T03:33:56.896Z,977.48
2017-09-29T03:34:57.073Z,977.51
2017-09-29T03:35:57.249Z,977.49
2017-09-29T03:36:57.166Z,977.48
2017-09-29T03:37:57.554Z,977.49
2017-09-29T03:38:57.169Z,977.46
2017-09-29T03:39:57.173Z,977.45
2017-09-29T03:40:57.620Z,977.42
2017-09-29T03:41:57.499Z,977.42
2017-09-29T03:42:57.695Z,977.43
2017-09-29T03:43:57.509Z,977.42
2017-09-29T03:44:57.651Z,977.43
2017-09-29T03:45:57.579Z,977.44
2017-09-29T03:46:57.524Z,977.40
2017-09-29T03:47:58.027Z,977.42
2017-09-29T03:48:57.850Z,977.40
2017-09-29T03:49:57.992Z,977.41
2017-09-29T03:50:57.965Z,977.40
2017-09-29T03:51:58.179Z,977.37
2017-09-29T03:52:58.509Z,977.42
2017-09-29T03:53:58.063Z,977.43
2017-09-29T03:54:58.369Z,977.42
2017-09-29T03:55:58.199Z,977.43
2017-09-29T03:56:58.386Z,977.39
2017-09-29T03:57:58.615Z,977.39
2017-09-29T03:58:58.532Z,977.38
2017-09-29T03:59:58.293Z,977.38
2017-09-29T04:00:58.326Z,977.37
2017-09-29T04:01:58.757Z,977.39
2017-09-29T04:02:58.322Z,977.38
2017-09-29T04:03:58.503Z,977.43
2017-09-29T04:04:58.645Z,977.38
2017-09-29T04:05:58.599Z,977.40
2017-09-29T04:06:58.696Z,977.35
2017-09-29T04:07:58.646Z,977.35
2017-09-29T04:08:58.822Z,977.35
2017-09-29T04:09:58.831Z,977.35
2017-09-29T04:10:58.849Z,977.39
2017-09-29T04:11:58.992Z,977.36
2017-09-29T04:12:58.783Z,977.38
2017-09-29T04:13:58.937Z,977.40
2017-09-29T04:14:58.930Z,977.42
2017-09-29T04:15:58.982Z,977.39
2017-09-29T04:16:59.126Z,977.42
2017-09-29T04:17:59.265Z,977.44
2017-09-29T04:18:59.644Z,977.44
2017-09-29T04:19:59.284Z,977.41
2017-09-29T04:20:59.164Z,977.38
2017-09-29T04:21:59.476Z,977.41
2017-09-29T04:22:59.363Z,977.40
2017-09-29T04:24:00.049Z,977.41
2017-09-29T04:24:59.547Z,977.40
2017-09-29T04:25:59.472Z,977.44
2017-09-29T04:26:59.680Z,977.45
2017-09-29T04:27:59.523Z,977.42
2017-09-29T04:29:00.016Z,977.45
2017-09-29T04:29:59.842Z,977.42
2017-09-29T04:30:59.899Z,977.44
2017-09-29T04:32:00.237Z,977.42
2017-09-29T04:33:00.318Z,977.43
2017-09-29T04:34:00.399Z,977.42
2017-09-29T04:35:00.205Z,977.43
2017-09-29T04:36:00.016Z,977.45
2017-09-29T04:37:00.070Z,977.46
2017-09-29T04:38:00.072Z,977.46
2017-09-29T04:39:00.733Z,977.47
2017-09-29T04:40:00.173Z,977.45
2017-09-29T04:41:00.310Z,977.47
2017-09-29T04:42:00.608Z,977.44
2017-09-29T04:43:00.485Z,977.48
2017-09-29T04:44:00.802Z,977.46
2017-09-29T04:45:00.969Z,977.50
2017-09-29T04:46:00.472Z,977.49
2017-09-29T04:47:00.580Z,977.49
2017-09-29T04:48:00.793Z,977.46
2017-09-29T04:49:00.933Z,977.49
2017-09-29T04:50:01.009Z,977.52
2017-09-29T04:51:00.830Z,977.50
2017-09-29T04:52:00.705Z,977.49
2017-09-29T04:53:01.411Z,977.51
2017-09-29T04:54:01.106Z,977.52
2017-09-29T04:55:01.009Z,977.54
2017-09-29T04:56:00.883Z,977.50
2017-09-29T04:57:01.081Z,977.53
2017-09-29T04:58:00.932Z,977.49
2017-09-29T04:59:01.551Z,977.51
2017-09-29T05:00:01.475Z,977.55
2017-09-29T05:01:01.169Z,977.58
2017-09-29T05:02:01.292Z,977.59
2017-09-29T05:03:01.369Z,977.59
2017-09-29T05:04:01.940Z,977.63
2017-09-29T05:05:01.576Z,977.65
2017-09-29T05:06:01.472Z,977.64
2017-09-29T05:07:01.429Z,977.61
2017-09-29T05:08:01.788Z,977.65
2017-09-29T05:09:02.547Z,977.68
2017-09-29T05:10:02.049Z,977.69
2017-09-29T05:11:02.339Z,977.74
2017-09-29T05:12:02.452Z,977.74
2017-09-29T05:13:01.732Z,977.74
2017-09-29T05:14:02.114Z,977.77
2017-09-29T05:15:01.970Z,977.76
2017-09-29T05:16:02.141Z,977.76
2017-09-29T05:17:02.104Z,977.75
2017-09-29T05:18:02.528Z,977.77
2017-09-29T05:19:02.409Z,977.76
2017-09-29T05:20:02.192Z,977.76
2017-09-29T05:21:02.517Z,977.77
2017-09-29T05:22:02.669Z,977.77
2017-09-29T05:23:02.644Z,977.77
2017-09-29T05:24:03.038Z,977.77
2017-09-29T05:25:02.397Z,977.78
2017-09-29T05:26:02.740Z,977.80
2017-09-29T05:27:02.730Z,977.78
2017-09-29T05:28:02.904Z,977.80
2017-09-29T05:29:02.909Z,977.82
2017-09-29T05:30:02.807Z,977.84
2017-09-29T05:31:02.913Z,977.86
2017-09-29T05:32:03.137Z,977.86
2017-09-29T05:33:02.995Z,977.90
2017-09-29T05:34:03.270Z,977.91
2017-09-29T05:35:03.213Z,977.95
2017-09-29T05:36:02.915Z,977.95
2017-09-29T05:37:02.940Z,977.94
2017-09-29T05:38:03.154Z,977.94
2017-09-29T05:39:03.387Z,977.98
2017-09-29T05:40:03.198Z,977.97
2017-09-29T05:41:03.124Z,977.96
2017-09-29T05:42:03.974Z,977.98
2017-09-29T05:43:03.973Z,977.95
2017-09-29T05:44:03.747Z,977.95
2017-09-29T05:45:03.734Z,977.98
2017-09-29T05:46:03.432Z,977.99
2017-09-29T05:47:03.553Z,977.97
2017-09-29T05:48:03.746Z,978.00
2017-09-29T05:49:03.834Z,978.00
2017-09-29T05:50:04.276Z,977.99
2017-09-29T05:51:03.610Z,977.99
2017-09-29T05:52:03.651Z,977.99
2017-09-29T05:53:03.759Z,978.01
2017-09-29T05:54:04.129Z,978.06
2017-09-29T05:55:04.358Z,978.03
2017-09-29T05:56:03.972Z,978.07
2017-09-29T05:57:04.090Z,978.08
2017-09-29T05:58:03.987Z,978.08
2017-09-29T05:59:04.185Z,978.09
2017-09-29T06:00:04.402Z,978.07
2017-09-29T06:01:04.236Z,978.11
2017-09-29T06:02:04.285Z,978.17
2017-09-29T06:03:04.382Z,978.19
2017-09-29T06:04:05.000Z,978.17
2017-09-29T06:05:04.972Z,978.22
2017-09-29T06:06:04.734Z,978.27
2017-09-29T06:07:04.513Z,978.24
2017-09-29T06:08:04.783Z,978.21
2017-09-29T06:09:04.678Z,978.21
2017-09-29T06:10:04.797Z,978.22
2017-09-29T06:11:05.210Z,978.21
2017-09-29T06:12:04.994Z,978.21
2017-09-29T06:13:04.808Z,978.20
2017-09-29T06:14:04.748Z,978.24
2017-09-29T06:15:04.853Z,978.21
2017-09-29T06:16:05.175Z,978.24
2017-09-29T06:17:04.891Z,978.27
2017-09-29T06:18:05.051Z,978.28
2017-09-29T06:19:05.720Z,978.27
2017-09-29T06:20:05.028Z,978.31
2017-09-29T06:21:05.578Z,978.31
2017-09-29T06:22:05.321Z,978.33
2017-09-29T06:23:05.392Z,978.36
2017-09-29T06:24:05.300Z,978.38
2017-09-29T06:25:05.469Z,978.37
2017-09-29T06:26:05.963Z,978.39
2017-09-29T06:27:05.971Z,978.43
2017-09-29T06:28:06.057Z,978.42
2017-09-29T06:29:05.746Z,978.42
2017-09-29T06:30:06.121Z,978.41
2017-09-29T06:31:05.961Z,978.42
2017-09-29T06:32:05.578Z,978.45
2017-09-29T06:33:06.030Z,978.48
2017-09-29T06:34:06.427Z,978.45
2017-09-29T06:35:06.006Z,978.47
2017-09-29T06:36:06.035Z,978.46
2017-09-29T06:37:06.339Z,978.43
2017-09-29T06:38:06.277Z,978.40
2017-09-29T06:39:06.312Z,978.44
2017-09-29T06:40:06.264Z,978.37
2017-09-29T06:41:06.401Z,978.39
2017-09-29T06:42:06.725Z,978.41
2017-09-29T06:43:06.879Z,978.39
2017-09-29T06:44:06.473Z,978.46
2017-09-29T06:45:06.617Z,978.45
2017-09-29T06:46:06.500Z,978.45
2017-09-29T06:47:06.994Z,978.51
2017-09-29T06:48:06.691Z,978.48
2017-09-29T06:49:06.953Z,978.46
2017-09-29T06:50:07.129Z,978.47
2017-09-29T06:51:07.208Z,978.50
2017-09-29T06:52:07.278Z,978.47
2017-09-29T06:53:06.988Z,978.50
2017-09-29T06:54:07.167Z,978.49
2017-09-29T06:55:07.307Z,978.51
2017-09-29T06:56:07.161Z,978.55
2017-09-29T06:57:07.465Z,978.54
2017-09-29T06:58:07.600Z,978.52
2017-09-29T06:59:07.302Z,978.54
2017-09-29T07:00:06.954Z,978.61
2017-09-29T07:01:07.369Z,978.59
2017-09-29T07:02:07.633Z,978.59
2017-09-29T07:03:07.468Z,978.61
2017-09-29T07:04:07.878Z,978.66
2017-09-29T07:05:07.450Z,978.67
2017-09-29T07:06:07.934Z,978.70
2017-09-29T07:07:08.349Z,978.72
2017-09-29T07:08:08.144Z,978.73
2017-09-29T07:09:07.764Z,978.66
2017-09-29T07:10:07.954Z,978.67
2017-09-29T07:11:07.808Z,978.65
2017-09-29T07:12:07.901Z,978.66
2017-09-29T07:13:08.329Z,978.68
2017-09-29T07:14:07.970Z,978.69
2017-09-29T07:15:08.145Z,978.68
2017-09-29T07:16:08.366Z,978.69
2017-09-29T07:17:08.146Z,978.68
2017-09-29T07:18:08.515Z,978.64
2017-09-29T07:19:08.607Z,978.68
2017-09-29T07:20:08.725Z,978.68
2017-09-29T07:21:08.799Z,978.63
2017-09-29T07:22:08.657Z,978.64
2017-09-29T07:23:08.900Z,978.68
2017-09-29T07:24:08.670Z,978.68
2017-09-29T07:25:08.312Z,978.69
2017-09-29T07:26:08.719Z,978.67
2017-09-29T07:27:08.740Z,978.69
2017-09-29T07:28:09.082Z,978.72
2017-09-29T07:29:09.384Z,978.67
2017-09-29T07:30:09.166Z,978.66
2017-09-29T07:31:09.051Z,978.68
2017-09-29T07:32:08.859Z,978.76
2017-09-29T07:33:08.823Z,978.80
2017-09-29T07:34:09.350Z,978.86
2017-09-29T07:35:09.354Z,978.88
2017-09-29T07:36:09.379Z,978.92
2017-09-29T07:37:08.670Z,978.89
2017-09-29T07:38:08.683Z,978.87
2017-09-29T07:39:09.553Z,978.93
2017-09-29T07:40:08.750Z,978.94
2017-09-29T07:41:09.009Z,978.94
2017-09-29T07:42:09.160Z,978.96
2017-09-29T07:43:09.300Z,978.97
2017-09-29T07:44:09.432Z,978.99
2017-09-29T07:45:08.993Z,979.03
2017-09-29T07:46:09.663Z,979.04
2017-09-29T07:47:09.093Z,979.08
2017-09-29T07:48:09.740Z,979.05
2017-09-29T07:49:10.097Z,979.04
2017-09-29T07:50:09.784Z,979.06
2017-09-29T07:51:10.106Z,979.06
2017-09-29T07:52:10.051Z,979.08
2017-09-29T07:53:10.376Z,979.07
2017-09-29T07:54:10.073Z,979.09
2017-09-29T07:55:10.306Z,979.10
2017-09-29T07:56:10.148Z,979.07
2017-09-29T07:57:10.542Z,979.04
2017-09-29T07:58:10.462Z,979.09
2017-09-29T07:59:10.585Z,979.04
2017-09-29T08:00:10.216Z,979.02
2017-09-29T08:01:09.791Z,979.04
2017-09-29T08:02:10.012Z,979.05
2017-09-29T08:03:09.884Z,979.06
2017-09-29T08:04:10.497Z,979.05
2017-09-29T08:05:10.087Z,979.06
2017-09-29T08:06:10.032Z,979.07
2017-09-29T08:07:10.325Z,979.04
2017-09-29T08:08:10.263Z,979.05
2017-09-29T08:09:10.564Z,979.05
2017-09-29T08:10:10.308Z,979.04
2017-09-29T08:11:11.044Z,979.04
2017-09-29T08:12:11.326Z,978.99
2017-09-29T08:13:11.077Z,979.02
2017-09-29T08:14:11.165Z,978.97
2017-09-29T08:15:11.689Z,978.98
2017-09-29T08:16:11.407Z,978.97
2017-09-29T08:17:11.553Z,978.98
2017-09-29T08:18:11.424Z,978.96
2017-09-29T08:19:11.539Z,978.98
2017-09-29T08:20:11.490Z,978.90
2017-09-29T08:21:11.673Z,978.92
2017-09-29T08:22:11.722Z,978.98
2017-09-29T08:23:11.925Z,978.96
2017-09-29T08:24:11.882Z,978.92
2017-09-29T08:25:11.449Z,978.94
2017-09-29T08:26:11.787Z,978.90
2017-09-29T08:27:12.021Z,978.89
2017-09-29T08:28:11.677Z,978.86
2017-09-29T08:29:11.802Z,978.88
2017-09-29T08:30:11.223Z,978.87
2017-09-29T08:31:12.208Z,978.86
2017-09-29T08:32:12.196Z,978.92
2017-09-29T08:33:11.881Z,978.88
2017-09-29T08:34:12.009Z,978.91
2017-09-29T08:35:12.251Z,978.88
2017-09-29T08:36:11.586Z,978.84
2017-09-29T08:37:12.179Z,978.86
2017-09-29T08:38:12.034Z,978.84
2017-09-29T08:39:11.720Z,978.83
2017-09-29T08:40:11.720Z,978.82
2017-09-29T08:41:12.394Z,978.83
2017-09-29T08:42:12.151Z,978.85
2017-09-29T08:43:12.389Z,978.79
2017-09-29T08:44:12.722Z,978.81
2017-09-29T08:45:12.784Z,978.78
2017-09-29T08:46:12.758Z,978.76
2017-09-29T08:47:13.026Z,978.77
2017-09-29T08:48:12.628Z,978.79
2017-09-29T08:49:12.715Z,978.76
2017-09-29T08:50:12.591Z,978.73
2017-09-29T08:51:12.786Z,978.78
2017-09-29T08:52:13.644Z,978.77
2017-09-29T08:53:12.840Z,978.74
2017-09-29T08:54:13.313Z,978.72
2017-09-29T08:55:13.403Z,978.67
2017-09-29T08:56:13.379Z,978.70
2017-09-29T08:57:13.373Z,978.64
2017-09-29T08:58:13.492Z,978.66
2017-09-29T08:59:13.097Z,978.61
2017-09-29T09:00:13.245Z,978.61
2017-09-29T09:01:13.255Z,978.65
2017-09-29T09:02:12.878Z,978.64
2017-09-29T09:03:12.948Z,978.65
2017-09-29T09:04:13.547Z,978.65
2017-09-29T09:05:13.328Z,978.64
2017-09-29T09:06:13.426Z,978.65
2017-09-29T09:07:13.739Z,978.64
2017-09-29T09:08:13.715Z,978.67
2017-09-29T09:09:13.889Z,978.65
2017-09-29T09:10:13.753Z,978.67
2017-09-29T09:11:13.836Z,978.66
2017-09-29T09:12:14.360Z,978.67
2017-09-29T09:13:13.916Z,978.66
2017-09-29T09:14:13.870Z,978.66
2017-09-29T09:15:14.325Z,978.64
2017-09-29T09:16:14.468Z,978.64
2017-09-29T09:17:14.424Z,978.61
2017-09-29T09:18:13.680Z,978.58
2017-09-29T09:19:14.160Z,978.62
2017-09-29T09:20:13.705Z,978.60
2017-09-29T09:21:14.282Z,978.59
2017-09-29T09:22:14.601Z,978.58
2017-09-29T09:23:14.841Z,978.56
2017-09-29T09:24:14.676Z,978.53
2017-09-29T09:25:14.304Z,978.53
2017-09-29T09:26:14.767Z,978.52
2017-09-29T09:27:14.760Z,978.52
2017-09-29T09:28:15.051Z,978.46
2017-09-29T09:29:14.632Z,978.44
2017-09-29T09:30:15.075Z,978.50
2017-09-29T09:31:15.139Z,978.48
2017-09-29T09:32:15.084Z,978.44
2017-09-29T09:33:15.208Z,978.44
2017-09-29T09:34:15.313Z,978.42
2017-09-29T09:35:15.058Z,978.41
2017-09-29T09:36:15.291Z,978.41
2017-09-29T09:37:15.109Z,978.41
2017-09-29T09:38:15.462Z,978.35
2017-09-29T09:39:15.575Z,978.34
2017-09-29T09:40:14.997Z,978.32
2017-09-29T09:41:15.189Z,978.34
2017-09-29T09:42:15.732Z,978.26
2017-09-29T09:43:15.673Z,978.26
2017-09-29T09:44:15.470Z,978.27
2017-09-29T09:45:15.413Z,978.21
2017-09-29T09:46:15.820Z,978.22
2017-09-29T09:47:15.891Z,978.20
2017-09-29T09:48:16.164Z,978.20
2017-09-29T09:49:15.452Z,978.16
2017-09-29T09:50:15.838Z,978.08
2017-09-29T09:51:16.059Z,978.10
2017-09-29T09:52:16.087Z,978.05
2017-09-29T09:53:16.277Z,978.08
2017-09-29T09:54:16.345Z,978.05
2017-09-29T09:55:16.327Z,978.07
2017-09-29T09:56:16.380Z,978.01
2017-09-29T09:57:15.995Z,978.04
2017-09-29T09:58:16.585Z,978.05
2017-09-29T09:59:16.563Z,978.03
2017-09-29T10:00:16.594Z,978.06
2017-09-29T10:01:16.343Z,978.06
2017-09-29T10:02:16.306Z,978.05
2017-09-29T10:03:16.373Z,978.03
2017-09-29T10:04:16.756Z,978.03
2017-09-29T10:05:16.331Z,978.01
2017-09-29T10:06:16.844Z,978.00
2017-09-29T10:07:16.554Z,977.99
2017-09-29T10:08:16.993Z,977.96
2017-09-29T10:09:17.003Z,978.01
2017-09-29T10:10:17.161Z,978.03
2017-09-29T10:11:16.638Z,978.00
2017-09-29T10:12:17.129Z,977.98
2017-09-29T10:13:16.951Z,977.98
2017-09-29T10:14:17.382Z,977.95
2017-09-29T10:15:17.354Z,977.96
2017-09-29T10:16:17.414Z,977.94
2017-09-29T10:17:17.238Z,977.95
2017-09-29T10:18:17.556Z,977.91
2017-09-29T10:19:17.298Z,977.92
2017-09-29T10:20:17.667Z,977.89
2017-09-29T10:21:17.600Z,977.88
2017-09-29T10:22:17.732Z,977.86
2017-09-29T10:23:17.818Z,977.84
2017-09-29T10:24:17.677Z,977.81
2017-09-29T10:25:17.819Z,977.78
2017-09-29T10:26:17.850Z,977.78
2017-09-29T10:27:17.920Z,977.77
2017-09-29T10:28:17.954Z,977.76
2017-09-29T10:29:18.232Z,977.76
2017-09-29T10:30:17.750Z,977.76
2017-09-29T10:31:18.194Z,977.74
2017-09-29T10:32:17.830Z,977.74
2017-09-29T10:33:17.978Z,977.73
2017-09-29T10:34:18.271Z,977.73
2017-09-29T10:35:18.344Z,977.75
2017-09-29T10:36:18.502Z,977.70
2017-09-29T10:37:18.466Z,977.73
2017-09-29T10:38:18.078Z,977.70
2017-09-29T10:39:18.640Z,977.72
2017-09-29T10:40:18.622Z,977.75
2017-09-29T10:41:18.743Z,977.73
2017-09-29T10:42:18.768Z,977.73
2017-09-29T10:43:18.360Z,977.67
2017-09-29T10:44:18.351Z,977.69
2017-09-29T10:45:18.917Z,977.67
2017-09-29T10:46:18.791Z,977.63
2017-09-29T10:47:18.578Z,977.65
2017-09-29T10:48:19.038Z,977.64
2017-09-29T10:49:18.740Z,977.59
2017-09-29T10:50:18.869Z,977.54
2017-09-29T10:51:19.292Z,977.57
2017-09-29T10:52:19.247Z,977.57
2017-09-29T10:53:19.341Z,977.56
2017-09-29T10:54:19.458Z,977.58
2017-09-29T10:55:19.330Z,977.57
2017-09-29T10:56:19.454Z,977.54
2017-09-29T10:57:19.435Z,977.58
2017-09-29T10:58:19.627Z,977.51
2017-09-29T10:59:19.123Z,977.49
2017-09-29T11:00:19.177Z,977.54
2017-09-29T11:01:19.440Z,977.51
2017-09-29T11:02:19.389Z,977.49
2017-09-29T11:03:19.031Z,977.47
2017-09-29T11:04:19.509Z,977.41
2017-09-29T11:05:19.395Z,977.46
2017-09-29T11:06:19.683Z,977.43
2017-09-29T11:07:19.755Z,977.45
2017-09-29T11:08:19.834Z,977.44
2017-09-29T11:09:19.830Z,977.42
2017-09-29T11:10:20.092Z,977.43
2017-09-29T11:11:19.901Z,977.41
2017-09-29T11:12:20.146Z,977.49
2017-09-29T11:13:19.970Z,977.45
2017-09-29T11:14:20.345Z,977.50
2017-09-29T11:15:20.054Z,977.50
2017-09-29T11:16:20.443Z,977.53
2017-09-29T11:17:20.652Z,977.56
2017-09-29T11:18:20.277Z,977.55
2017-09-29T11:19:20.077Z,977.56
2017-09-29T11:20:20.347Z,977.52
2017-09-29T11:21:20.024Z,977.49
2017-09-29T11:22:20.724Z,977.49
2017-09-29T11:23:20.651Z,977.50
2017-09-29T11:24:20.907Z,977.48
2017-09-29T11:25:20.541Z,977.52
2017-09-29T11:26:21.164Z,977.47
2017-09-29T11:27:20.799Z,977.41
2017-09-29T11:28:21.096Z,977.40
2017-09-29T11:29:21.077Z,977.45
2017-09-29T11:30:21.233Z,977.46
2017-09-29T11:31:20.831Z,977.43
2017-09-29T11:32:21.554Z,977.46
2017-09-29T11:33:21.351Z,977.41
2017-09-29T11:34:21.093Z,977.38
2017-09-29T11:35:21.089Z,977.36
2017-09-29T11:36:21.065Z,977.34
2017-09-29T11:37:21.542Z,977.32
2017-09-29T11:38:21.706Z,977.30
2017-09-29T11:39:21.175Z,977.24
2017-09-29T11:40:21.758Z,977.23
2017-09-29T11:41:21.727Z,977.26
2017-09-29T11:42:21.476Z,977.22
2017-09-29T11:43:22.281Z,977.23
2017-09-29T11:44:21.462Z,977.21
2017-09-29T11:45:21.630Z,977.17
2017-09-29T11:46:21.785Z,977.22
2017-09-29T11:47:21.827Z,977.18
2017-09-29T11:48:22.096Z,977.23
2017-09-29T11:49:21.751Z,977.21
2017-09-29T11:50:21.601Z,977.19
2017-09-29T11:51:22.258Z,977.22
2017-09-29T11:52:22.476Z,977.25
2017-09-29T11:53:22.528Z,977.19
2017-09-29T11:54:22.393Z,977.16
2017-09-29T11:55:22.542Z,977.16
2017-09-29T11:56:22.597Z,977.17
2017-09-29T11:57:22.627Z,977.14
2017-09-29T11:58:22.461Z,977.15
2017-09-29T11:59:22.647Z,977.13
2017-09-29T12:00:22.510Z,977.08
2017-09-29T12:01:22.602Z,977.07
2017-09-29T12:02:22.586Z,977.05
2017-09-29T12:03:22.561Z,977.06
2017-09-29T12:04:22.460Z,976.99
2017-09-29T12:05:22.184Z,976.97
2017-09-29T12:06:22.242Z,976.97
2017-09-29T12:07:22.718Z,976.90
2017-09-29T12:08:23.141Z,976.95
2017-09-29T12:09:23.387Z,976.87
2017-09-29T12:10:23.304Z,976.91
2017-09-29T12:11:23.487Z,976.88
2017-09-29T12:12:23.497Z,976.91
2017-09-29T12:13:23.088Z,976.91
2017-09-29T12:14:23.074Z,976.91
2017-09-29T12:15:23.187Z,976.90
2017-09-29T12:16:23.588Z,976.95
2017-09-29T12:17:23.337Z,976.92
2017-09-29T12:18:23.730Z,976.92
2017-09-29T12:19:24.091Z,976.91
2017-09-29T12:20:23.590Z,976.97
2017-09-29T12:21:23.573Z,976.94
2017-09-29T12:22:23.584Z,976.91
2017-09-29T12:23:23.764Z,976.95
2017-09-29T12:24:24.198Z,976.92
2017-09-29T12:25:23.783Z,976.98
2017-09-29T12:26:23.835Z,976.92
2017-09-29T12:27:23.914Z,976.92
2017-09-29T12:28:24.029Z,976.93
2017-09-29T12:29:24.254Z,976.92